aviador You're here:

LQTZ Decoded Metar

in _UNIDENTIFIED
Report Time2018-01-19 05:00:00
UTC Time2018-01-19 05:21:01
Flight Rules vfr VFR
WindVRB at 02 kt
Visibility9999 m
Phenomena:N/A
Clouds:N/A
Expected CloudBase > 400 ft AGL from Temp-Dew spread
CeilingNone
Temp-1°C (ISA -14)
Dew Point-2°C (93% RH)
AAT-4.0°C
QNH1008 hPa
Density Alt-459 ft
Elevation1,004 ft
Report Wrong Elevation
Raw Report
LQTZ 190500Z VRB02KT CAVOK M01/M02 Q1008=

Extra information for LQTZ:More info

Metar Taf Metar & Taf Last 4 Metars F.Rules Stats Wind Profile Meteogram Temp Stats Metar ALERT Operation Metar Decoded Social comments